sensor_id;sensor_type;location;lat;lon;timestamp;P1;durP1;ratioP1;P2;durP2;ratioP2
64459;SDS011;50828;53.756;21.140;2023-06-19T00:00:27;8.00;;;7.20;;
64459;SDS011;50828;53.756;21.140;2023-06-19T00:05:35;8.40;;;7.00;;
64459;SDS011;50828;53.756;21.140;2023-06-19T00:10:43;8.80;;;7.40;;
64459;SDS011;50828;53.756;21.140;2023-06-19T00:15:53;10.00;;;8.00;;
64459;SDS011;50828;53.756;21.140;2023-06-19T00:21:04;10.10;;;7.90;;
64459;SDS011;50828;53.756;21.140;2023-06-19T00:26:12;9.20;;;8.00;;
64459;SDS011;50828;53.756;21.140;2023-06-19T00:31:20;9.10;;;7.60;;
64459;SDS011;50828;53.756;21.140;2023-06-19T00:36:28;10.50;;;8.00;;
64459;SDS011;50828;53.756;21.140;2023-06-19T00:41:36;14.30;;;7.40;;
64459;SDS011;50828;53.756;21.140;2023-06-19T00:46:45;9.80;;;7.10;;
64459;SDS011;50828;53.756;21.140;2023-06-19T00:51:57;12.20;;;7.40;;
64459;SDS011;50828;53.756;21.140;2023-06-19T00:57:05;7.90;;;7.00;;
64459;SDS011;50828;53.756;21.140;2023-06-19T01:02:13;8.80;;;7.90;;
64459;SDS011;50828;53.756;21.140;2023-06-19T01:07:27;7.60;;;6.80;;
64459;SDS011;50828;53.756;21.140;2023-06-19T01:12:46;6.80;;;6.20;;
64459;SDS011;50828;53.756;21.140;2023-06-19T01:18:02;7.50;;;6.50;;
64459;SDS011;50828;53.756;21.140;2023-06-19T01:23:11;7.70;;;6.90;;
64459;SDS011;50828;53.756;21.140;2023-06-19T01:28:19;7.90;;;7.10;;
64459;SDS011;50828;53.756;21.140;2023-06-19T01:33:28;10.80;;;6.80;;
64459;SDS011;50828;53.756;21.140;2023-06-19T01:38:38;7.80;;;6.80;;
64459;SDS011;50828;53.756;21.140;2023-06-19T01:43:49;7.40;;;6.60;;
64459;SDS011;50828;53.756;21.140;2023-06-19T01:48:58;7.00;;;6.20;;
64459;SDS011;50828;53.756;21.140;2023-06-19T01:54:05;8.10;;;6.90;;
64459;SDS011;50828;53.756;21.140;2023-06-19T01:59:13;7.50;;;6.60;;
64459;SDS011;50828;53.756;21.140;2023-06-19T02:04:22;7.40;;;6.60;;
64459;SDS011;50828;53.756;21.140;2023-06-19T02:09:30;7.20;;;6.50;;
64459;SDS011;50828;53.756;21.140;2023-06-19T02:14:39;8.20;;;7.10;;
64459;SDS011;50828;53.756;21.140;2023-06-19T02:19:48;7.40;;;6.60;;
64459;SDS011;50828;53.756;21.140;2023-06-19T02:24:56;7.70;;;6.80;;
64459;SDS011;50828;53.756;21.140;2023-06-19T02:30:05;9.70;;;7.20;;
64459;SDS011;50828;53.756;21.140;2023-06-19T02:35:14;8.00;;;7.10;;
64459;SDS011;50828;53.756;21.140;2023-06-19T02:40:21;8.80;;;7.60;;
64459;SDS011;50828;53.756;21.140;2023-06-19T02:45:29;8.70;;;6.50;;
64459;SDS011;50828;53.756;21.140;2023-06-19T02:50:38;7.50;;;6.70;;
64459;SDS011;50828;53.756;21.140;2023-06-19T02:55:46;7.60;;;6.80;;
64459;SDS011;50828;53.756;21.140;2023-06-19T03:00:55;9.00;;;8.00;;
64459;SDS011;50828;53.756;21.140;2023-06-19T03:06:03;8.30;;;7.50;;
64459;SDS011;50828;53.756;21.140;2023-06-19T03:11:12;7.90;;;7.00;;
64459;SDS011;50828;53.756;21.140;2023-06-19T03:16:20;7.50;;;6.70;;
64459;SDS011;50828;53.756;21.140;2023-06-19T03:21:28;8.40;;;7.30;;
64459;SDS011;50828;53.756;21.140;2023-06-19T03:26:37;9.40;;;7.20;;
64459;SDS011;50828;53.756;21.140;2023-06-19T03:31:45;9.20;;;7.00;;
64459;SDS011;50828;53.756;21.140;2023-06-19T03:36:54;8.60;;;6.90;;
64459;SDS011;50828;53.756;21.140;2023-06-19T03:42:02;7.70;;;6.60;;
64459;SDS011;50828;53.756;21.140;2023-06-19T03:47:11;8.20;;;7.20;;
64459;SDS011;50828;53.756;21.140;2023-06-19T03:52:19;7.50;;;6.80;;
64459;SDS011;50828;53.756;21.140;2023-06-19T03:57:27;7.90;;;7.10;;
64459;SDS011;50828;53.756;21.140;2023-06-19T04:02:35;7.70;;;6.90;;
64459;SDS011;50828;53.756;21.140;2023-06-19T04:07:42;7.20;;;6.40;;
64459;SDS011;50828;53.756;21.140;2023-06-19T04:12:50;7.10;;;6.30;;
64459;SDS011;50828;53.756;21.140;2023-06-19T04:17:59;5.50;;;4.90;;
64459;SDS011;50828;53.756;21.140;2023-06-19T04:23:07;6.50;;;5.70;;
64459;SDS011;50828;53.756;21.140;2023-06-19T04:28:15;7.20;;;6.30;;
64459;SDS011;50828;53.756;21.140;2023-06-19T04:33:23;6.80;;;6.10;;
64459;SDS011;50828;53.756;21.140;2023-06-19T04:38:32;8.00;;;6.90;;
64459;SDS011;50828;53.756;21.140;2023-06-19T04:43:41;7.80;;;7.00;;
64459;SDS011;50828;53.756;21.140;2023-06-19T04:48:49;8.60;;;6.90;;
64459;SDS011;50828;53.756;21.140;2023-06-19T04:53:59;8.50;;;7.30;;
64459;SDS011;50828;53.756;21.140;2023-06-19T04:59:06;9.00;;;7.50;;
64459;SDS011;50828;53.756;21.140;2023-06-19T05:04:14;9.00;;;8.00;;
64459;SDS011;50828;53.756;21.140;2023-06-19T05:09:23;9.40;;;7.90;;
64459;SDS011;50828;53.756;21.140;2023-06-19T05:14:30;8.80;;;7.90;;
64459;SDS011;50828;53.756;21.140;2023-06-19T05:19:38;9.10;;;7.80;;
64459;SDS011;50828;53.756;21.140;2023-06-19T05:24:46;9.00;;;7.90;;
64459;SDS011;50828;53.756;21.140;2023-06-19T05:29:53;10.50;;;8.80;;
64459;SDS011;50828;53.756;21.140;2023-06-19T05:35:01;11.80;;;9.10;;
64459;SDS011;50828;53.756;21.140;2023-06-19T05:40:10;11.40;;;9.20;;
64459;SDS011;50828;53.756;21.140;2023-06-19T05:45:17;14.50;;;10.20;;
64459;SDS011;50828;53.756;21.140;2023-06-19T05:50:25;11.50;;;9.30;;
64459;SDS011;50828;53.756;21.140;2023-06-19T05:55:35;12.40;;;9.50;;
64459;SDS011;50828;53.756;21.140;2023-06-19T06:00:43;11.70;;;9.90;;
64459;SDS011;50828;53.756;21.140;2023-06-19T06:05:51;13.60;;;10.60;;
64459;SDS011;50828;53.756;21.140;2023-06-19T06:11:06;11.80;;;9.40;;
64459;SDS011;50828;53.756;21.140;2023-06-19T06:16:15;13.40;;;11.10;;
64459;SDS011;50828;53.756;21.140;2023-06-19T06:21:23;13.70;;;11.10;;
64459;SDS011;50828;53.756;21.140;2023-06-19T06:26:31;15.90;;;12.20;;
64459;SDS011;50828;53.756;21.140;2023-06-19T06:31:40;12.50;;;10.20;;
64459;SDS011;50828;53.756;21.140;2023-06-19T06:36:48;15.60;;;11.10;;
64459;SDS011;50828;53.756;21.140;2023-06-19T06:42:09;17.40;;;13.00;;
64459;SDS011;50828;53.756;21.140;2023-06-19T06:47:17;16.50;;;12.40;;
64459;SDS011;50828;53.756;21.140;2023-06-19T06:52:25;15.40;;;11.30;;
64459;SDS011;50828;53.756;21.140;2023-06-19T06:57:35;16.10;;;13.00;;
64459;SDS011;50828;53.756;21.140;2023-06-19T07:02:43;16.10;;;10.90;;
64459;SDS011;50828;53.756;21.140;2023-06-19T07:07:55;15.80;;;12.60;;
64459;SDS011;50828;53.756;21.140;2023-06-19T07:13:03;15.40;;;12.80;;
64459;SDS011;50828;53.756;21.140;2023-06-19T07:18:11;18.40;;;14.50;;
64459;SDS011;50828;53.756;21.140;2023-06-19T07:23:19;17.00;;;13.60;;
64459;SDS011;50828;53.756;21.140;2023-06-19T07:28:28;18.80;;;14.20;;
64459;SDS011;50828;53.756;21.140;2023-06-19T07:33:35;17.90;;;13.00;;
64459;SDS011;50828;53.756;21.140;2023-06-19T07:38:44;17.60;;;14.10;;
64459;SDS011;50828;53.756;21.140;2023-06-19T07:43:53;15.50;;;12.90;;
64459;SDS011;50828;53.756;21.140;2023-06-19T07:49:01;15.60;;;13.00;;
64459;SDS011;50828;53.756;21.140;2023-06-19T07:54:10;15.50;;;12.80;;
64459;SDS011;50828;53.756;21.140;2023-06-19T07:59:19;14.00;;;11.80;;
64459;SDS011;50828;53.756;21.140;2023-06-19T08:04:27;14.70;;;10.90;;
64459;SDS011;50828;53.756;21.140;2023-06-19T08:09:37;13.80;;;12.40;;
64459;SDS011;50828;53.756;21.140;2023-06-19T08:14:45;16.50;;;13.40;;
64459;SDS011;50828;53.756;21.140;2023-06-19T08:19:53;11.60;;;10.30;;
64459;SDS011;50828;53.756;21.140;2023-06-19T08:25:00;10.90;;;9.70;;
64459;SDS011;50828;53.756;21.140;2023-06-19T08:30:08;11.10;;;9.20;;
64459;SDS011;50828;53.756;21.140;2023-06-19T08:35:16;8.90;;;7.90;;
64459;SDS011;50828;53.756;21.140;2023-06-19T08:40:24;8.70;;;7.80;;
64459;SDS011;50828;53.756;21.140;2023-06-19T08:45:32;11.90;;;10.10;;
64459;SDS011;50828;53.756;21.140;2023-06-19T08:50:40;10.00;;;8.00;;
64459;SDS011;50828;53.756;21.140;2023-06-19T08:55:48;9.30;;;7.70;;
64459;SDS011;50828;53.756;21.140;2023-06-19T09:00:59;11.10;;;7.00;;
64459;SDS011;50828;53.756;21.140;2023-06-19T09:06:08;8.20;;;7.30;;
64459;SDS011;50828;53.756;21.140;2023-06-19T09:11:18;8.00;;;6.60;;
64459;SDS011;50828;53.756;21.140;2023-06-19T09:16:26;7.70;;;6.60;;
64459;SDS011;50828;53.756;21.140;2023-06-19T09:21:43;7.90;;;6.30;;
64459;SDS011;50828;53.756;21.140;2023-06-19T09:26:53;9.70;;;7.20;;
64459;SDS011;50828;53.756;21.140;2023-06-19T09:32:18;8.10;;;6.70;;
64459;SDS011;50828;53.756;21.140;2023-06-19T09:37:29;8.20;;;7.00;;
64459;SDS011;50828;53.756;21.140;2023-06-19T09:42:40;9.90;;;7.20;;
64459;SDS011;50828;53.756;21.140;2023-06-19T09:48:05;9.50;;;6.30;;
64459;SDS011;50828;53.756;21.140;2023-06-19T09:53:27;6.70;;;5.80;;
64459;SDS011;50828;53.756;21.140;2023-06-19T09:58:36;6.80;;;6.10;;
64459;SDS011;50828;53.756;21.140;2023-06-19T10:03:45;9.60;;;6.80;;
64459;SDS011;50828;53.756;21.140;2023-06-19T10:08:53;10.00;;;6.90;;
64459;SDS011;50828;53.756;21.140;2023-06-19T10:14:07;6.70;;;6.00;;
64459;SDS011;50828;53.756;21.140;2023-06-19T10:19:16;6.50;;;5.70;;
64459;SDS011;50828;53.756;21.140;2023-06-19T10:24:28;7.00;;;6.30;;
64459;SDS011;50828;53.756;21.140;2023-06-19T10:29:40;7.80;;;5.30;;
64459;SDS011;50828;53.756;21.140;2023-06-19T10:34:58;6.60;;;5.40;;
64459;SDS011;50828;53.756;21.140;2023-06-19T10:40:08;7.30;;;6.00;;
64459;SDS011;50828;53.756;21.140;2023-06-19T10:45:17;7.50;;;5.60;;
64459;SDS011;50828;53.756;21.140;2023-06-19T10:50:35;6.00;;;4.50;;
64459;SDS011;50828;53.756;21.140;2023-06-19T10:55:47;6.60;;;5.20;;
64459;SDS011;50828;53.756;21.140;2023-06-19T11:00:59;12.30;;;5.40;;
64459;SDS011;50828;53.756;21.140;2023-06-19T11:06:07;7.50;;;4.50;;
64459;SDS011;50828;53.756;21.140;2023-06-19T11:11:15;7.80;;;4.70;;
64459;SDS011;50828;53.756;21.140;2023-06-19T11:16:25;6.00;;;5.20;;
64459;SDS011;50828;53.756;21.140;2023-06-19T11:21:33;6.10;;;4.80;;
64459;SDS011;50828;53.756;21.140;2023-06-19T11:26:43;8.70;;;5.20;;
64459;SDS011;50828;53.756;21.140;2023-06-19T11:32:04;5.60;;;5.10;;
64459;SDS011;50828;53.756;21.140;2023-06-19T11:37:15;7.90;;;5.20;;
64459;SDS011;50828;53.756;21.140;2023-06-19T11:42:24;5.20;;;4.50;;
64459;SDS011;50828;53.756;21.140;2023-06-19T11:52:41;6.70;;;4.70;;
64459;SDS011;50828;53.756;21.140;2023-06-19T11:57:49;7.40;;;5.00;;
64459;SDS011;50828;53.756;21.140;2023-06-19T12:02:57;7.60;;;4.90;;
64459;SDS011;50828;53.756;21.140;2023-06-19T12:08:05;8.10;;;4.70;;
64459;SDS011;50828;53.756;21.140;2023-06-19T12:13:13;6.60;;;4.70;;
64459;SDS011;50828;53.756;21.140;2023-06-19T12:18:20;5.30;;;4.40;;
64459;SDS011;50828;53.756;21.140;2023-06-19T12:23:28;8.40;;;5.40;;
64459;SDS011;50828;53.756;21.140;2023-06-19T12:28:35;5.30;;;4.40;;
64459;SDS011;50828;53.756;21.140;2023-06-19T12:33:42;6.40;;;4.20;;
64459;SDS011;50828;53.756;21.140;2023-06-19T12:38:51;9.10;;;5.20;;
64459;SDS011;50828;53.756;21.140;2023-06-19T12:43:59;7.70;;;4.80;;
64459;SDS011;50828;53.756;21.140;2023-06-19T12:49:06;6.10;;;5.20;;
64459;SDS011;50828;53.756;21.140;2023-06-19T12:54:13;7.90;;;4.90;;
64459;SDS011;50828;53.756;21.140;2023-06-19T12:59:21;6.00;;;4.90;;
64459;SDS011;50828;53.756;21.140;2023-06-19T13:04:28;5.70;;;4.80;;
64459;SDS011;50828;53.756;21.140;2023-06-19T13:09:36;5.70;;;5.10;;
64459;SDS011;50828;53.756;21.140;2023-06-19T13:14:43;5.70;;;4.90;;
64459;SDS011;50828;53.756;21.140;2023-06-19T13:19:51;5.60;;;4.90;;
64459;SDS011;50828;53.756;21.140;2023-06-19T13:24:59;5.00;;;4.50;;
64459;SDS011;50828;53.756;21.140;2023-06-19T13:30:08;5.40;;;4.90;;
64459;SDS011;50828;53.756;21.140;2023-06-19T13:35:17;5.00;;;4.50;;
64459;SDS011;50828;53.756;21.140;2023-06-19T13:40:25;5.60;;;5.00;;
64459;SDS011;50828;53.756;21.140;2023-06-19T13:45:34;5.00;;;4.40;;
64459;SDS011;50828;53.756;21.140;2023-06-19T13:50:42;4.50;;;4.10;;
64459;SDS011;50828;53.756;21.140;2023-06-19T13:55:50;7.90;;;4.10;;
64459;SDS011;50828;53.756;21.140;2023-06-19T14:00:58;5.30;;;4.40;;
64459;SDS011;50828;53.756;21.140;2023-06-19T14:06:05;4.50;;;4.10;;
64459;SDS011;50828;53.756;21.140;2023-06-19T14:11:15;4.40;;;3.90;;
64459;SDS011;50828;53.756;21.140;2023-06-19T14:16:25;5.70;;;4.40;;
64459;SDS011;50828;53.756;21.140;2023-06-19T14:21:32;5.30;;;3.90;;
64459;SDS011;50828;53.756;21.140;2023-06-19T14:26:40;5.30;;;3.80;;
64459;SDS011;50828;53.756;21.140;2023-06-19T14:31:47;4.30;;;3.90;;
64459;SDS011;50828;53.756;21.140;2023-06-19T14:36:55;6.30;;;3.80;;
64459;SDS011;50828;53.756;21.140;2023-06-19T14:42:03;4.30;;;3.70;;
64459;SDS011;50828;53.756;21.140;2023-06-19T14:47:11;5.10;;;3.70;;
64459;SDS011;50828;53.756;21.140;2023-06-19T14:52:20;5.90;;;3.80;;
64459;SDS011;50828;53.756;21.140;2023-06-19T14:57:27;5.50;;;3.60;;
64459;SDS011;50828;53.756;21.140;2023-06-19T15:02:35;4.00;;;3.30;;
64459;SDS011;50828;53.756;21.140;2023-06-19T15:07:43;5.50;;;3.40;;
64459;SDS011;50828;53.756;21.140;2023-06-19T15:12:51;3.80;;;3.40;;
64459;SDS011;50828;53.756;21.140;2023-06-19T15:17:59;4.20;;;3.70;;
64459;SDS011;50828;53.756;21.140;2023-06-19T15:23:06;4.20;;;3.00;;
64459;SDS011;50828;53.756;21.140;2023-06-19T15:28:14;4.80;;;3.90;;
64459;SDS011;50828;53.756;21.140;2023-06-19T15:33:22;4.40;;;3.40;;
64459;SDS011;50828;53.756;21.140;2023-06-19T15:38:29;5.80;;;3.60;;
64459;SDS011;50828;53.756;21.140;2023-06-19T15:43:37;4.20;;;3.70;;
64459;SDS011;50828;53.756;21.140;2023-06-19T15:48:45;4.50;;;3.80;;
64459;SDS011;50828;53.756;21.140;2023-06-19T15:53:53;4.40;;;3.10;;
64459;SDS011;50828;53.756;21.140;2023-06-19T15:59:00;5.70;;;4.40;;
64459;SDS011;50828;53.756;21.140;2023-06-19T16:04:08;6.00;;;3.80;;
64459;SDS011;50828;53.756;21.140;2023-06-19T16:09:15;5.70;;;3.90;;
64459;SDS011;50828;53.756;21.140;2023-06-19T16:14:23;4.60;;;4.10;;
64459;SDS011;50828;53.756;21.140;2023-06-19T16:19:30;5.20;;;4.10;;
64459;SDS011;50828;53.756;21.140;2023-06-19T16:24:38;4.10;;;3.70;;
64459;SDS011;50828;53.756;21.140;2023-06-19T16:29:45;5.20;;;4.30;;
64459;SDS011;50828;53.756;21.140;2023-06-19T16:34:53;6.30;;;4.00;;
64459;SDS011;50828;53.756;21.140;2023-06-19T16:40:00;4.80;;;4.20;;
64459;SDS011;50828;53.756;21.140;2023-06-19T16:45:10;4.20;;;3.80;;
64459;SDS011;50828;53.756;21.140;2023-06-19T16:50:17;4.80;;;4.10;;
64459;SDS011;50828;53.756;21.140;2023-06-19T16:55:24;5.10;;;4.00;;
64459;SDS011;50828;53.756;21.140;2023-06-19T17:00:32;5.00;;;3.90;;
64459;SDS011;50828;53.756;21.140;2023-06-19T17:05:39;5.50;;;4.00;;
64459;SDS011;50828;53.756;21.140;2023-06-19T17:10:46;6.10;;;4.20;;
64459;SDS011;50828;53.756;21.140;2023-06-19T17:15:54;4.80;;;4.30;;
64459;SDS011;50828;53.756;21.140;2023-06-19T17:21:01;4.80;;;4.30;;
64459;SDS011;50828;53.756;21.140;2023-06-19T17:26:09;5.10;;;4.30;;
64459;SDS011;50828;53.756;21.140;2023-06-19T17:31:16;5.60;;;4.40;;
64459;SDS011;50828;53.756;21.140;2023-06-19T17:36:24;6.70;;;4.60;;
64459;SDS011;50828;53.756;21.140;2023-06-19T17:41:31;9.50;;;8.60;;
64459;SDS011;50828;53.756;21.140;2023-06-19T17:46:40;12.40;;;7.30;;
64459;SDS011;50828;53.756;21.140;2023-06-19T17:51:47;7.70;;;6.90;;
64459;SDS011;50828;53.756;21.140;2023-06-19T17:56:55;10.20;;;7.10;;
64459;SDS011;50828;53.756;21.140;2023-06-19T18:02:02;7.80;;;6.20;;
64459;SDS011;50828;53.756;21.140;2023-06-19T18:07:11;8.30;;;5.60;;
64459;SDS011;50828;53.756;21.140;2023-06-19T18:12:19;6.20;;;5.40;;
64459;SDS011;50828;53.756;21.140;2023-06-19T18:17:26;7.80;;;5.70;;
64459;SDS011;50828;53.756;21.140;2023-06-19T18:22:34;6.40;;;5.70;;
64459;SDS011;50828;53.756;21.140;2023-06-19T18:27:42;9.80;;;5.40;;
64459;SDS011;50828;53.756;21.140;2023-06-19T18:32:49;7.90;;;6.20;;
64459;SDS011;50828;53.756;21.140;2023-06-19T18:37:57;7.50;;;6.40;;
64459;SDS011;50828;53.756;21.140;2023-06-19T18:43:04;8.00;;;7.20;;
64459;SDS011;50828;53.756;21.140;2023-06-19T18:48:12;11.40;;;7.50;;
64459;SDS011;50828;53.756;21.140;2023-06-19T18:53:19;9.90;;;7.70;;
64459;SDS011;50828;53.756;21.140;2023-06-19T18:58:27;8.90;;;7.20;;
64459;SDS011;50828;53.756;21.140;2023-06-19T19:03:34;10.60;;;7.80;;
64459;SDS011;50828;53.756;21.140;2023-06-19T19:08:42;10.90;;;8.00;;
64459;SDS011;50828;53.756;21.140;2023-06-19T19:13:50;9.70;;;7.90;;
64459;SDS011;50828;53.756;21.140;2023-06-19T19:18:57;10.00;;;8.40;;
64459;SDS011;50828;53.756;21.140;2023-06-19T19:24:05;11.90;;;9.10;;
64459;SDS011;50828;53.756;21.140;2023-06-19T19:29:12;11.90;;;8.70;;
64459;SDS011;50828;53.756;21.140;2023-06-19T19:34:19;9.60;;;8.20;;
64459;SDS011;50828;53.756;21.140;2023-06-19T19:39:28;14.80;;;9.90;;
64459;SDS011;50828;53.756;21.140;2023-06-19T19:44:38;10.60;;;8.60;;
64459;SDS011;50828;53.756;21.140;2023-06-19T19:49:45;13.10;;;9.30;;
64459;SDS011;50828;53.756;21.140;2023-06-19T19:54:54;9.00;;;7.90;;
64459;SDS011;50828;53.756;21.140;2023-06-19T20:00:02;9.80;;;8.00;;
64459;SDS011;50828;53.756;21.140;2023-06-19T20:05:11;9.60;;;7.90;;
64459;SDS011;50828;53.756;21.140;2023-06-19T20:10:19;8.50;;;7.60;;
64459;SDS011;50828;53.756;21.140;2023-06-19T20:15:27;13.20;;;7.70;;
64459;SDS011;50828;53.756;21.140;2023-06-19T20:20:35;11.00;;;7.40;;
64459;SDS011;50828;53.756;21.140;2023-06-19T20:25:42;10.70;;;7.30;;
64459;SDS011;50828;53.756;21.140;2023-06-19T20:30:50;8.80;;;6.80;;
64459;SDS011;50828;53.756;21.140;2023-06-19T20:35:59;8.80;;;7.80;;
64459;SDS011;50828;53.756;21.140;2023-06-19T20:41:07;8.40;;;7.50;;
64459;SDS011;50828;53.756;21.140;2023-06-19T20:46:20;10.00;;;7.70;;
64459;SDS011;50828;53.756;21.140;2023-06-19T20:51:28;9.20;;;7.10;;
64459;SDS011;50828;53.756;21.140;2023-06-19T20:56:36;8.60;;;6.90;;
64459;SDS011;50828;53.756;21.140;2023-06-19T21:01:45;11.50;;;8.20;;
64459;SDS011;50828;53.756;21.140;2023-06-19T21:06:52;9.70;;;7.20;;
64459;SDS011;50828;53.756;21.140;2023-06-19T21:12:00;10.70;;;8.20;;
64459;SDS011;50828;53.756;21.140;2023-06-19T21:17:08;9.40;;;7.90;;
64459;SDS011;50828;53.756;21.140;2023-06-19T21:22:15;7.50;;;6.80;;
64459;SDS011;50828;53.756;21.140;2023-06-19T21:27:23;8.30;;;7.30;;
64459;SDS011;50828;53.756;21.140;2023-06-19T21:32:30;7.60;;;6.20;;
64459;SDS011;50828;53.756;21.140;2023-06-19T21:37:37;8.10;;;6.60;;
64459;SDS011;50828;53.756;21.140;2023-06-19T21:42:45;9.00;;;6.70;;
64459;SDS011;50828;53.756;21.140;2023-06-19T21:47:52;9.20;;;7.70;;
64459;SDS011;50828;53.756;21.140;2023-06-19T21:52:59;11.30;;;7.50;;
64459;SDS011;50828;53.756;21.140;2023-06-19T21:58:06;10.20;;;7.20;;
64459;SDS011;50828;53.756;21.140;2023-06-19T22:03:14;8.20;;;7.20;;
64459;SDS011;50828;53.756;21.140;2023-06-19T22:08:21;8.20;;;6.40;;
64459;SDS011;50828;53.756;21.140;2023-06-19T22:13:44;8.70;;;7.40;;
64459;SDS011;50828;53.756;21.140;2023-06-19T22:18:51;7.70;;;6.90;;
64459;SDS011;50828;53.756;21.140;2023-06-19T22:23:59;9.60;;;7.10;;
64459;SDS011;50828;53.756;21.140;2023-06-19T22:29:06;8.40;;;6.90;;
64459;SDS011;50828;53.756;21.140;2023-06-19T22:34:16;7.60;;;6.80;;
64459;SDS011;50828;53.756;21.140;2023-06-19T22:39:23;8.90;;;7.70;;
64459;SDS011;50828;53.756;21.140;2023-06-19T22:44:33;8.90;;;7.30;;
64459;SDS011;50828;53.756;21.140;2023-06-19T22:49:40;8.20;;;7.40;;
64459;SDS011;50828;53.756;21.140;2023-06-19T22:54:47;10.80;;;8.00;;
64459;SDS011;50828;53.756;21.140;2023-06-19T22:59:54;8.10;;;7.30;;
64459;SDS011;50828;53.756;21.140;2023-06-19T23:05:05;11.60;;;8.20;;
64459;SDS011;50828;53.756;21.140;2023-06-19T23:10:13;9.90;;;7.60;;
64459;SDS011;50828;53.756;21.140;2023-06-19T23:15:20;11.60;;;7.90;;
64459;SDS011;50828;53.756;21.140;2023-06-19T23:20:28;8.90;;;7.60;;
64459;SDS011;50828;53.756;21.140;2023-06-19T23:25:36;10.70;;;7.90;;
64459;SDS011;50828;53.756;21.140;2023-06-19T23:30:43;8.20;;;7.30;;
64459;SDS011;50828;53.756;21.140;2023-06-19T23:35:54;9.50;;;8.00;;
64459;SDS011;50828;53.756;21.140;2023-06-19T23:41:02;7.60;;;6.50;;
64459;SDS011;50828;53.756;21.140;2023-06-19T23:46:09;6.50;;;5.50;;
64459;SDS011;50828;53.756;21.140;2023-06-19T23:51:17;8.20;;;5.80;;
64459;SDS011;50828;53.756;21.140;2023-06-19T23:56:24;9.40;;;6.60;;
